createdAt,value
2022-08-23T00:02:47.582Z,1.70
2022-08-23T00:06:52.116Z,1.95
2022-08-23T00:10:56.245Z,1.73
2022-08-23T00:19:02.759Z,1.63
2022-08-23T00:23:05.028Z,1.60
2022-08-23T00:27:18.447Z,1.88
2022-08-23T00:31:20.797Z,1.50
2022-08-23T00:35:27.118Z,2.00
2022-08-23T00:39:31.215Z,1.95
2022-08-23T00:43:59.088Z,1.93
2022-08-23T00:48:03.037Z,1.70
2022-08-23T00:52:24.370Z,1.70
2022-08-23T00:56:33.674Z,1.70
2022-08-23T01:00:36.351Z,2.13
2022-08-23T01:04:45.592Z,1.83
2022-08-23T01:09:12.284Z,1.90
2022-08-23T01:13:23.314Z,1.52
2022-08-23T01:17:50.350Z,1.80
2022-08-23T01:22:00.626Z,1.58
2022-08-23T01:26:05.627Z,1.45
2022-08-23T01:30:18.171Z,1.88
2022-08-23T01:34:30.484Z,1.88
2022-08-23T01:38:38.805Z,1.48
2022-08-23T01:42:41.906Z,1.77
2022-08-23T01:46:47.258Z,1.63
2022-08-23T01:50:53.621Z,1.70
2022-08-23T01:55:00.212Z,1.60
2022-08-23T01:59:05.229Z,1.58
2022-08-23T02:03:18.452Z,1.63
2022-08-23T02:07:27.288Z,1.50
2022-08-23T02:11:43.561Z,1.50
2022-08-23T02:15:51.367Z,1.95
2022-08-23T02:19:55.432Z,1.42
2022-08-23T02:24:11.732Z,1.50
2022-08-23T02:28:17.165Z,1.75
2022-08-23T02:32:20.164Z,1.80
2022-08-23T02:36:23.346Z,1.58
2022-08-23T02:40:26.210Z,1.63
2022-08-23T02:44:31.986Z,1.77
2022-08-23T02:48:35.064Z,1.75
2022-08-23T02:52:41.854Z,1.65
2022-08-23T02:56:49.905Z,2.07
2022-08-23T03:00:57.522Z,1.90
2022-08-23T03:05:04.764Z,1.80
2022-08-23T03:09:10.433Z,1.80
2022-08-23T03:13:17.402Z,1.77
2022-08-23T03:21:47.673Z,1.88
2022-08-23T03:26:03.504Z,1.58
2022-08-23T03:30:19.128Z,1.80
2022-08-23T03:34:29.702Z,1.77
2022-08-23T03:42:42.645Z,1.83
2022-08-23T03:46:50.582Z,2.20
2022-08-23T03:50:54.624Z,2.10
2022-08-23T03:55:06.551Z,2.53
2022-08-23T03:59:13.850Z,1.73
2022-08-23T04:03:21.787Z,1.90
2022-08-23T04:07:41.249Z,2.17
2022-08-23T04:11:47.807Z,2.28
2022-08-23T04:15:55.170Z,1.70
2022-08-23T04:20:03.574Z,3.00
2022-08-23T04:28:31.930Z,2.20
2022-08-23T04:32:44.395Z,1.95
2022-08-23T04:36:55.423Z,2.10
2022-08-23T04:45:46.817Z,2.53
2022-08-23T04:50:04.274Z,2.33
2022-08-23T04:54:18.897Z,1.75
2022-08-23T04:58:58.227Z,1.70
2022-08-23T05:03:07.416Z,2.40
2022-08-23T05:07:19.671Z,2.35
2022-08-23T05:11:38.480Z,2.58
2022-08-23T05:16:15.386Z,3.58
2022-08-23T05:20:26.499Z,3.22
2022-08-23T05:24:29.192Z,3.43
2022-08-23T05:28:34.688Z,2.80
2022-08-23T05:32:38.770Z,2.65
2022-08-23T05:36:48.905Z,2.85
2022-08-23T05:41:02.428Z,2.42
2022-08-23T05:45:12.189Z,2.47
2022-08-23T05:49:19.531Z,2.58
2022-08-23T05:53:24.487Z,3.22
2022-08-23T05:57:27.191Z,2.38
2022-08-23T06:01:30.901Z,2.65
2022-08-23T06:05:40.884Z,2.10
2022-08-23T06:09:44.626Z,2.42
2022-08-23T06:13:50.897Z,1.67
2022-08-23T06:17:53.088Z,1.83
2022-08-23T06:21:56.401Z,1.75
2022-08-23T06:26:14.974Z,1.42
2022-08-23T06:30:18.870Z,1.38
2022-08-23T06:34:33.733Z,1.33
2022-08-23T06:38:43.081Z,1.58
2022-08-23T06:47:34.744Z,1.60
2022-08-23T06:51:48.531Z,1.70
2022-08-23T06:55:54.301Z,1.52
2022-08-23T07:00:01.875Z,1.73
2022-08-23T07:04:31.367Z,1.15
2022-08-23T07:08:51.838Z,1.27
2022-08-23T07:12:57.484Z,1.50
2022-08-23T07:17:06.599Z,1.10
2022-08-23T07:21:09.833Z,1.20
2022-08-23T07:25:30.115Z,1.10
2022-08-23T07:29:39.932Z,1.20
2022-08-23T07:33:46.592Z,1.17
2022-08-23T07:37:57.596Z,1.10
2022-08-23T07:42:22.884Z,1.48
2022-08-23T07:46:29.934Z,1.20
2022-08-23T07:54:37.059Z,1.05
2022-08-23T07:59:01.702Z,1.13
2022-08-23T08:03:14.939Z,1.40
2022-08-23T08:07:37.200Z,1.30
2022-08-23T08:15:45.082Z,1.20
2022-08-23T08:20:00.402Z,1.10
2022-08-23T08:24:14.211Z,1.15
2022-08-23T08:28:20.711Z,0.90
2022-08-23T08:32:23.482Z,1.27
2022-08-23T08:36:35.878Z,0.80
2022-08-23T08:40:40.975Z,1.08
2022-08-23T08:44:51.363Z,1.20
2022-08-23T08:49:01.982Z,1.35
2022-08-23T08:53:25.435Z,1.05
2022-08-23T08:57:48.006Z,1.30
2022-08-23T09:01:53.103Z,1.10
2022-08-23T09:06:13.791Z,1.02
2022-08-23T09:10:46.396Z,0.90
2022-08-23T09:15:09.980Z,1.20
2022-08-23T09:23:22.708Z,0.82
2022-08-23T09:27:28.006Z,1.10
2022-08-23T09:31:37.303Z,1.83
2022-08-23T09:35:39.544Z,1.10
2022-08-23T09:39:53.909Z,1.15
2022-08-23T09:44:02.981Z,5.05
2022-08-23T09:48:07.373Z,1.20
2022-08-23T09:52:22.276Z,1.02
2022-08-23T09:56:39.499Z,1.20
2022-08-23T10:00:44.649Z,1.40
2022-08-23T10:05:06.866Z,2.13
2022-08-23T10:09:32.958Z,1.20
2022-08-23T10:13:41.899Z,1.02
2022-08-23T10:18:16.551Z,0.98
2022-08-23T10:22:24.541Z,0.98
2022-08-23T10:27:34.722Z,0.88
2022-08-23T10:31:43.035Z,1.10
2022-08-23T10:36:03.762Z,1.00
2022-08-23T10:40:29.067Z,1.05
2022-08-23T10:44:33.396Z,1.20
2022-08-23T10:48:42.297Z,0.65
2022-08-23T10:52:55.643Z,1.23
2022-08-23T10:56:58.815Z,1.55
2022-08-23T11:01:02.980Z,1.37
2022-08-23T11:05:27.875Z,0.90
2022-08-23T11:09:58.478Z,1.00
2022-08-23T11:14:04.187Z,1.02
2022-08-23T11:18:09.211Z,0.80
2022-08-23T11:22:22.306Z,0.98
2022-08-23T11:26:27.908Z,0.82
2022-08-23T11:30:33.219Z,1.00
2022-08-23T11:35:05.611Z,1.00
2022-08-23T11:39:13.810Z,1.00
2022-08-23T11:43:43.541Z,0.90
2022-08-23T11:47:50.389Z,0.85
2022-08-23T11:52:20.606Z,1.00
2022-08-23T11:57:07.630Z,1.02
2022-08-23T12:01:12.550Z,1.10
2022-08-23T12:05:44.730Z,1.30
2022-08-23T12:09:52.361Z,1.10
2022-08-23T12:13:54.467Z,1.20
2022-08-23T12:18:10.093Z,1.45
2022-08-23T12:22:22.146Z,1.40
2022-08-23T12:26:54.398Z,0.90
2022-08-23T12:31:47.137Z,1.23
2022-08-23T12:35:49.256Z,1.10
2022-08-23T12:39:56.127Z,1.20
2022-08-23T12:44:08.407Z,1.05
2022-08-23T12:48:12.988Z,1.23
2022-08-23T12:52:15.241Z,1.02
2022-08-23T12:56:31.881Z,1.02
2022-08-23T13:00:39.716Z,1.20
2022-08-23T13:04:43.291Z,0.70
2022-08-23T13:08:49.988Z,1.20
2022-08-23T13:12:52.482Z,1.10
2022-08-23T13:16:56.594Z,0.82
2022-08-23T13:21:18.764Z,0.70
2022-08-23T13:25:41.586Z,0.77
2022-08-23T13:30:03.739Z,0.77
2022-08-23T13:34:06.205Z,0.90
2022-08-23T13:38:08.290Z,0.70
2022-08-23T13:42:11.749Z,1.00
2022-08-23T13:46:22.334Z,0.85
2022-08-23T13:50:31.983Z,0.98
2022-08-23T13:54:35.731Z,0.70
2022-08-23T13:58:38.563Z,0.98
2022-08-23T14:02:40.855Z,0.98
2022-08-23T14:06:48.806Z,0.90
2022-08-23T14:10:52.995Z,1.20
2022-08-23T14:15:01.174Z,0.85
2022-08-23T14:27:29.169Z,0.85
2022-08-23T14:31:31.765Z,0.67
2022-08-23T14:35:33.835Z,0.70
2022-08-23T14:39:35.917Z,0.90
2022-08-23T14:43:38.347Z,0.98
2022-08-23T14:47:41.455Z,1.13
2022-08-23T14:51:46.394Z,1.37
2022-08-23T14:56:12.313Z,0.88
2022-08-23T15:00:16.286Z,1.02
2022-08-23T15:04:22.891Z,1.27
2022-08-23T15:08:25.126Z,0.70
2022-08-23T15:16:50.346Z,0.95
2022-08-23T15:24:55.726Z,1.20
2022-08-23T15:28:58.851Z,1.10
2022-08-23T15:33:02.076Z,1.05
2022-08-23T15:37:05.214Z,1.08
2022-08-23T15:41:07.423Z,1.08
2022-08-23T15:45:11.383Z,0.90
2022-08-23T15:49:17.174Z,1.20
2022-08-23T15:53:22.207Z,1.00
2022-08-23T15:57:28.172Z,1.20
2022-08-23T16:01:33.734Z,0.75
2022-08-23T16:05:37.594Z,0.80
2022-08-23T16:09:41.053Z,0.77
2022-08-23T16:13:45.103Z,1.00
2022-08-23T16:17:47.358Z,1.75
2022-08-23T16:21:51.787Z,0.95
2022-08-23T16:25:56.824Z,1.00
2022-08-23T16:30:05.140Z,1.50
2022-08-23T16:34:18.142Z,1.63
2022-08-23T16:38:20.209Z,1.20
2022-08-23T16:42:22.423Z,0.82
2022-08-23T16:46:24.810Z,1.20
2022-08-23T16:50:27.686Z,1.20
2022-08-23T16:54:29.915Z,0.80
2022-08-23T16:58:32.427Z,1.00
2022-08-23T17:02:36.195Z,0.85
2022-08-23T17:06:38.911Z,0.80
2022-08-23T17:14:45.429Z,0.73
2022-08-23T17:18:48.084Z,0.80
2022-08-23T17:22:57.104Z,0.90
2022-08-23T17:27:09.044Z,0.70
2022-08-23T17:31:21.704Z,0.70
2022-08-23T17:35:42.211Z,1.10
2022-08-23T17:39:48.608Z,1.02
2022-08-23T17:43:51.299Z,0.93
2022-08-23T17:47:54.578Z,0.73
2022-08-23T17:51:56.716Z,0.90
2022-08-23T17:55:59.240Z,0.70
2022-08-23T18:00:01.560Z,0.50
2022-08-23T18:04:07.633Z,0.50
2022-08-23T18:08:09.906Z,0.60
2022-08-23T18:12:12.192Z,0.50
2022-08-23T18:16:15.046Z,0.63
2022-08-23T18:20:17.212Z,0.47
2022-08-23T18:24:19.794Z,0.82
2022-08-23T18:28:21.857Z,0.70
2022-08-23T18:32:23.948Z,0.57
2022-08-23T18:36:27.882Z,0.60
2022-08-23T18:40:30.869Z,0.63
2022-08-23T18:44:33.530Z,0.50
2022-08-23T18:48:36.795Z,0.70
2022-08-23T18:52:39.305Z,0.70
2022-08-23T18:56:41.914Z,0.60
2022-08-23T19:00:46.989Z,0.60
2022-08-23T19:04:56.173Z,0.40
2022-08-23T19:09:01.097Z,0.70
2022-08-23T19:13:05.426Z,0.80
2022-08-23T19:17:10.985Z,0.40
2022-08-23T19:21:16.354Z,0.52
2022-08-23T19:25:18.688Z,0.63
2022-08-23T19:29:21.812Z,0.60
2022-08-23T19:33:23.911Z,0.60
2022-08-23T19:37:34.769Z,0.70
2022-08-23T19:41:51.740Z,0.55
2022-08-23T19:45:53.943Z,0.63
2022-08-23T19:49:56.679Z,0.60
2022-08-23T19:54:06.937Z,0.65
2022-08-23T19:58:14.283Z,0.70
2022-08-23T20:02:16.973Z,0.63
2022-08-23T20:06:19.384Z,0.57
2022-08-23T20:10:22.056Z,0.57
2022-08-23T20:14:26.164Z,0.82
2022-08-23T20:18:28.614Z,0.75
2022-08-23T20:22:49.358Z,0.70
2022-08-23T20:26:52.373Z,0.93
2022-08-23T20:30:54.550Z,0.88
2022-08-23T20:34:56.711Z,0.70
2022-08-23T20:39:02.009Z,0.70
2022-08-23T20:43:05.595Z,0.60
2022-08-23T20:47:08.001Z,0.63
2022-08-23T20:51:10.428Z,0.80
2022-08-23T20:55:13.826Z,0.80
2022-08-23T20:59:16.082Z,0.80
2022-08-23T21:03:18.711Z,2.13
2022-08-23T21:07:21.225Z,2.38
2022-08-23T21:11:44.626Z,1.00
2022-08-23T21:15:56.686Z,1.30
2022-08-23T21:20:13.799Z,0.85
2022-08-23T21:24:36.270Z,0.80
2022-08-23T21:28:52.793Z,0.70
2022-08-23T21:32:55.105Z,0.90
2022-08-23T21:36:58.228Z,0.80
2022-08-23T21:41:04.875Z,0.90
2022-08-23T21:45:09.112Z,0.90
2022-08-23T21:49:12.698Z,0.80
2022-08-23T21:57:34.026Z,1.55
2022-08-23T22:01:42.034Z,0.82
2022-08-23T22:05:48.795Z,0.80
2022-08-23T22:09:52.839Z,0.88
2022-08-23T22:13:55.774Z,1.33
2022-08-23T22:18:00.724Z,1.07
2022-08-23T22:22:04.289Z,1.20
2022-08-23T22:26:07.345Z,0.82
2022-08-23T22:30:11.242Z,0.90
2022-08-23T22:34:13.637Z,0.77
2022-08-23T22:38:17.516Z,0.70
2022-08-23T22:42:19.916Z,0.77
2022-08-23T22:46:23.059Z,0.80
2022-08-23T22:50:25.673Z,1.05
2022-08-23T22:54:27.810Z,0.80
2022-08-23T22:58:29.933Z,0.82
2022-08-23T23:02:32.018Z,1.00
2022-08-23T23:06:34.320Z,0.73
2022-08-23T23:10:40.843Z,0.98
2022-08-23T23:14:46.701Z,0.77
2022-08-23T23:19:13.558Z,0.70
2022-08-23T23:23:22.199Z,0.68
2022-08-23T23:27:24.330Z,0.65
2022-08-23T23:31:26.516Z,0.60
2022-08-23T23:35:29.872Z,0.70
2022-08-23T23:40:01.756Z,0.40
2022-08-23T23:44:07.693Z,0.93
2022-08-23T23:48:10.084Z,0.50
2022-08-23T23:52:12.243Z,0.57
2022-08-23T23:56:16.409Z,0.55
